sensor_id;sensor_type;location;lat;lon;timestamp;pressure;altitude;pressure_sealevel;temperature;humidity
47166;BME280;32930;51.112;13.762;2022-12-18T00:01:24;100862.53;;;-4.39;65.65
47166;BME280;32930;51.112;13.762;2022-12-18T00:03:52;100862.31;;;-4.32;65.20
47166;BME280;32930;51.112;13.762;2022-12-18T00:06:19;100864.44;;;-4.27;65.46
47166;BME280;32930;51.112;13.762;2022-12-18T00:08:46;100866.16;;;-4.46;65.83
47166;BME280;32930;51.112;13.762;2022-12-18T00:11:14;100878.28;;;-4.51;65.07
47166;BME280;32930;51.112;13.762;2022-12-18T00:13:41;100873.00;;;-4.54;65.12
47166;BME280;32930;51.112;13.762;2022-12-18T00:16:11;100869.97;;;-4.31;65.48
47166;BME280;32930;51.112;13.762;2022-12-18T00:18:37;100879.78;;;-4.43;65.92
47166;BME280;32930;51.112;13.762;2022-12-18T00:21:05;100891.75;;;-4.59;65.55
47166;BME280;32930;51.112;13.762;2022-12-18T00:23:35;100894.78;;;-4.53;65.86
47166;BME280;32930;51.112;13.762;2022-12-18T00:26:07;100899.47;;;-4.66;65.40
47166;BME280;32930;51.112;13.762;2022-12-18T00:28:33;100903.31;;;-4.51;65.56
47166;BME280;32930;51.112;13.762;2022-12-18T00:31:05;100893.03;;;-4.54;65.70
47166;BME280;32930;51.112;13.762;2022-12-18T00:33:31;100895.72;;;-4.61;64.82
47166;BME280;32930;51.112;13.762;2022-12-18T00:36:05;100901.22;;;-4.65;65.37
47166;BME280;32930;51.112;13.762;2022-12-18T00:38:32;100900.06;;;-4.50;65.52
47166;BME280;32930;51.112;13.762;2022-12-18T00:40:58;100901.88;;;-4.57;65.39
47166;BME280;32930;51.112;13.762;2022-12-18T00:43:23;100910.16;;;-4.58;65.41
47166;BME280;32930;51.112;13.762;2022-12-18T00:45:49;100919.06;;;-4.52;65.49
47166;BME280;32930;51.112;13.762;2022-12-18T00:48:15;100925.16;;;-4.58;65.46
47166;BME280;32930;51.112;13.762;2022-12-18T00:50:40;100916.03;;;-4.58;65.21
47166;BME280;32930;51.112;13.762;2022-12-18T00:53:06;100926.22;;;-4.75;64.85
47166;BME280;32930;51.112;13.762;2022-12-18T00:55:31;100921.03;;;-4.58;65.06
47166;BME280;32930;51.112;13.762;2022-12-18T00:57:57;100920.34;;;-4.47;65.30
47166;BME280;32930;51.112;13.762;2022-12-18T01:00:23;100932.75;;;-4.67;65.64
47166;BME280;32930;51.112;13.762;2022-12-18T01:02:49;100928.22;;;-4.71;64.96
47166;BME280;32930;51.112;13.762;2022-12-18T01:05:14;100924.41;;;-4.76;64.62
47166;BME280;32930;51.112;13.762;2022-12-18T01:07:40;100918.59;;;-4.67;65.13
47166;BME280;32930;51.112;13.762;2022-12-18T01:10:08;100924.97;;;-4.70;64.30
47166;BME280;32930;51.112;13.762;2022-12-18T01:12:35;100915.97;;;-4.68;65.25
47166;BME280;32930;51.112;13.762;2022-12-18T01:15:00;100923.97;;;-4.72;65.38
47166;BME280;32930;51.112;13.762;2022-12-18T01:17:26;100932.56;;;-4.60;65.33
47166;BME280;32930;51.112;13.762;2022-12-18T01:19:52;100926.59;;;-4.71;65.25
47166;BME280;32930;51.112;13.762;2022-12-18T01:22:17;100927.06;;;-4.75;64.96
47166;BME280;32930;51.112;13.762;2022-12-18T01:24:43;100931.81;;;-4.59;65.44
47166;BME280;32930;51.112;13.762;2022-12-18T01:27:08;100946.06;;;-4.96;65.34
47166;BME280;32930;51.112;13.762;2022-12-18T01:29:34;100948.56;;;-4.96;65.42
47166;BME280;32930;51.112;13.762;2022-12-18T01:31:59;100954.06;;;-4.81;65.22
47166;BME280;32930;51.112;13.762;2022-12-18T01:34:25;100946.41;;;-4.63;65.30
47166;BME280;32930;51.112;13.762;2022-12-18T01:36:50;100939.31;;;-4.78;64.81
47166;BME280;32930;51.112;13.762;2022-12-18T01:39:18;100952.22;;;-4.92;65.10
47166;BME280;32930;51.112;13.762;2022-12-18T01:41:44;100951.78;;;-4.88;65.50
47166;BME280;32930;51.112;13.762;2022-12-18T01:49:47;100951.63;;;-4.90;64.82
47166;BME280;32930;51.112;13.762;2022-12-18T01:52:13;100954.31;;;-4.97;64.73
47166;BME280;32930;51.112;13.762;2022-12-18T01:54:40;100942.16;;;-4.83;64.74
47166;BME280;32930;51.112;13.762;2022-12-18T01:57:05;100940.94;;;-4.97;64.77
47166;BME280;32930;51.112;13.762;2022-12-18T01:59:33;100946.59;;;-5.08;64.22
47166;BME280;32930;51.112;13.762;2022-12-18T02:01:59;100947.31;;;-5.01;64.40
47166;BME280;32930;51.112;13.762;2022-12-18T02:04:27;100947.56;;;-4.98;64.69
47166;BME280;32930;51.112;13.762;2022-12-18T02:09:46;100952.56;;;-5.17;64.62
47166;BME280;32930;51.112;13.762;2022-12-18T02:12:24;100948.78;;;-5.03;64.64
47166;BME280;32930;51.112;13.762;2022-12-18T02:17:43;100945.66;;;-5.00;64.31
47166;BME280;32930;51.112;13.762;2022-12-18T02:28:48;100946.31;;;-5.12;64.26
47166;BME280;32930;51.112;13.762;2022-12-18T02:31:21;100955.66;;;-5.19;63.61
47166;BME280;32930;51.112;13.762;2022-12-18T02:33:50;100956.66;;;-5.17;63.74
47166;BME280;32930;51.112;13.762;2022-12-18T02:36:18;100956.28;;;-5.30;63.87
47166;BME280;32930;51.112;13.762;2022-12-18T02:38:46;100950.66;;;-5.19;64.46
47166;BME280;32930;51.112;13.762;2022-12-18T02:41:14;100958.06;;;-5.29;64.28
47166;BME280;32930;51.112;13.762;2022-12-18T02:43:46;100963.97;;;-5.38;64.08
47166;BME280;32930;51.112;13.762;2022-12-18T02:46:31;100960.41;;;-5.31;63.84
47166;BME280;32930;51.112;13.762;2022-12-18T02:49:31;100966.97;;;-5.42;64.23
47166;BME280;32930;51.112;13.762;2022-12-18T02:52:05;100965.06;;;-5.17;64.41
47166;BME280;32930;51.112;13.762;2022-12-18T02:57:30;100960.72;;;-5.37;64.31
47166;BME280;32930;51.112;13.762;2022-12-18T03:00:04;100956.72;;;-5.26;64.28
47166;BME280;32930;51.112;13.762;2022-12-18T03:05:20;100954.66;;;-5.30;63.97
47166;BME280;32930;51.112;13.762;2022-12-18T03:07:55;100962.34;;;-5.37;64.60
47166;BME280;32930;51.112;13.762;2022-12-18T03:10:28;100958.34;;;-5.26;64.62
47166;BME280;32930;51.112;13.762;2022-12-18T03:13:02;100958.06;;;-5.29;64.33
47166;BME280;32930;51.112;13.762;2022-12-18T03:15:38;100963.75;;;-5.22;64.30
47166;BME280;32930;51.112;13.762;2022-12-18T03:18:12;100958.50;;;-5.33;64.43
47166;BME280;32930;51.112;13.762;2022-12-18T03:20:44;100966.78;;;-5.43;64.39
47166;BME280;32930;51.112;13.762;2022-12-18T03:23:17;100965.69;;;-5.28;64.71
47166;BME280;32930;51.112;13.762;2022-12-18T03:25:45;100961.13;;;-5.23;64.50
47166;BME280;32930;51.112;13.762;2022-12-18T03:28:18;100956.84;;;-5.24;64.63
47166;BME280;32930;51.112;13.762;2022-12-18T03:30:53;100963.94;;;-5.29;64.44
47166;BME280;32930;51.112;13.762;2022-12-18T03:33:28;100966.00;;;-5.33;64.82
47166;BME280;32930;51.112;13.762;2022-12-18T03:35:55;100966.97;;;-5.42;64.85
47166;BME280;32930;51.112;13.762;2022-12-18T03:38:21;100976.59;;;-5.36;64.85
47166;BME280;32930;51.112;13.762;2022-12-18T03:40:52;100974.78;;;-5.47;64.96
47166;BME280;32930;51.112;13.762;2022-12-18T03:46:15;100976.69;;;-5.45;64.81
47166;BME280;32930;51.112;13.762;2022-12-18T03:48:50;100982.00;;;-5.59;64.57
47166;BME280;32930;51.112;13.762;2022-12-18T03:51:48;100979.91;;;-5.46;64.88
47166;BME280;32930;51.112;13.762;2022-12-18T03:54:12;100978.66;;;-5.32;64.54
47166;BME280;32930;51.112;13.762;2022-12-18T03:56:52;100975.19;;;-5.43;64.27
47166;BME280;32930;51.112;13.762;2022-12-18T03:59:22;100973.66;;;-5.60;64.22
47166;BME280;32930;51.112;13.762;2022-12-18T04:01:53;100979.50;;;-5.59;64.46
47166;BME280;32930;51.112;13.762;2022-12-18T04:04:21;100982.59;;;-5.53;64.39
47166;BME280;32930;51.112;13.762;2022-12-18T04:06:50;100987.41;;;-5.46;64.48
47166;BME280;32930;51.112;13.762;2022-12-18T04:09:19;100978.31;;;-5.45;64.21
47166;BME280;32930;51.112;13.762;2022-12-18T04:11:46;100976.03;;;-5.61;63.99
47166;BME280;32930;51.112;13.762;2022-12-18T04:14:12;100983.63;;;-5.60;64.32
47166;BME280;32930;51.112;13.762;2022-12-18T04:16:37;100994.19;;;-5.53;64.24
47166;BME280;32930;51.112;13.762;2022-12-18T04:19:03;100992.47;;;-5.63;64.48
47166;BME280;32930;51.112;13.762;2022-12-18T04:21:29;100983.63;;;-5.60;65.21
47166;BME280;32930;51.112;13.762;2022-12-18T04:23:54;100992.00;;;-5.59;64.62
47166;BME280;32930;51.112;13.762;2022-12-18T04:26:20;100994.09;;;-5.64;64.41
47166;BME280;32930;51.112;13.762;2022-12-18T04:28:46;100998.81;;;-5.67;64.34
47166;BME280;32930;51.112;13.762;2022-12-18T04:31:12;100994.66;;;-5.57;64.12
47166;BME280;32930;51.112;13.762;2022-12-18T04:33:38;100998.16;;;-5.55;64.02
47166;BME280;32930;51.112;13.762;2022-12-18T04:36:04;100998.34;;;-5.63;63.85
47166;BME280;32930;51.112;13.762;2022-12-18T04:38:30;101006.47;;;-5.74;63.81
47166;BME280;32930;51.112;13.762;2022-12-18T04:40:55;101009.25;;;-5.71;63.96
47166;BME280;32930;51.112;13.762;2022-12-18T04:43:21;101010.72;;;-5.64;64.01
47166;BME280;32930;51.112;13.762;2022-12-18T04:45:46;101010.06;;;-5.89;63.88
47166;BME280;32930;51.112;13.762;2022-12-18T04:48:12;101011.03;;;-5.70;64.11
47166;BME280;32930;51.112;13.762;2022-12-18T04:50:38;101018.53;;;-5.70;63.69
47166;BME280;32930;51.112;13.762;2022-12-18T04:53:03;101012.56;;;-5.89;63.61
47166;BME280;32930;51.112;13.762;2022-12-18T04:55:29;101011.47;;;-5.74;64.05
47166;BME280;32930;51.112;13.762;2022-12-18T04:57:55;101004.88;;;-5.82;64.25
47166;BME280;32930;51.112;13.762;2022-12-18T05:00:21;101002.03;;;-5.95;63.85
47166;BME280;32930;51.112;13.762;2022-12-18T05:02:47;101002.22;;;-5.84;63.72
47166;BME280;32930;51.112;13.762;2022-12-18T05:05:12;101005.66;;;-5.92;63.40
47166;BME280;32930;51.112;13.762;2022-12-18T05:07:38;101002.69;;;-5.88;63.59
47166;BME280;32930;51.112;13.762;2022-12-18T05:10:07;101010.22;;;-5.96;63.26
47166;BME280;32930;51.112;13.762;2022-12-18T05:12:33;101011.72;;;-6.07;63.41
47166;BME280;32930;51.112;13.762;2022-12-18T05:14:58;101005.66;;;-5.92;63.54
47166;BME280;32930;51.112;13.762;2022-12-18T05:17:24;101007.41;;;-5.91;63.15
47166;BME280;32930;51.112;13.762;2022-12-18T05:19:49;101008.13;;;-5.92;63.05
47166;BME280;32930;51.112;13.762;2022-12-18T05:22:15;101004.91;;;-5.91;63.24
47166;BME280;32930;51.112;13.762;2022-12-18T05:24:41;101009.06;;;-6.00;63.30
47166;BME280;32930;51.112;13.762;2022-12-18T05:27:06;101019.69;;;-6.11;62.92
47166;BME280;32930;51.112;13.762;2022-12-18T05:29:32;101020.69;;;-6.00;63.31
47166;BME280;32930;51.112;13.762;2022-12-18T05:31:57;101018.22;;;-6.26;63.38
47166;BME280;32930;51.112;13.762;2022-12-18T05:34:23;101008.06;;;-6.02;63.42
47166;BME280;32930;51.112;13.762;2022-12-18T05:36:48;101008.94;;;-6.10;62.87
47166;BME280;32930;51.112;13.762;2022-12-18T05:39:14;101018.06;;;-6.11;63.38
47166;BME280;32930;51.112;13.762;2022-12-18T05:41:39;101006.44;;;-6.10;63.08
47166;BME280;32930;51.112;13.762;2022-12-18T05:44:05;101018.19;;;-6.09;63.32
47166;BME280;32930;51.112;13.762;2022-12-18T05:46:30;101017.47;;;-6.17;63.15
47166;BME280;32930;51.112;13.762;2022-12-18T05:48:59;101016.59;;;-6.26;63.11
47166;BME280;32930;51.112;13.762;2022-12-18T05:51:26;101012.47;;;-6.08;63.26
47166;BME280;32930;51.112;13.762;2022-12-18T05:53:52;101025.25;;;-6.22;63.34
47166;BME280;32930;51.112;13.762;2022-12-18T05:56:21;101021.59;;;-6.17;63.07
47166;BME280;32930;51.112;13.762;2022-12-18T05:58:51;101028.91;;;-6.19;63.29
47166;BME280;32930;51.112;13.762;2022-12-18T06:01:20;101025.25;;;-6.22;63.00
47166;BME280;32930;51.112;13.762;2022-12-18T06:03:46;101028.19;;;-6.26;62.96
47166;BME280;32930;51.112;13.762;2022-12-18T06:06:21;101018.38;;;-6.42;62.93
47166;BME280;32930;51.112;13.762;2022-12-18T06:08:48;101028.91;;;-6.27;62.96
47166;BME280;32930;51.112;13.762;2022-12-18T06:11:19;101022.63;;;-6.24;63.08
47166;BME280;32930;51.112;13.762;2022-12-18T06:13:45;101031.56;;;-6.35;62.94
47166;BME280;32930;51.112;13.762;2022-12-18T06:16:11;101028.50;;;-6.32;63.29
47166;BME280;32930;51.112;13.762;2022-12-18T06:18:37;101039.81;;;-6.36;62.98
47166;BME280;32930;51.112;13.762;2022-12-18T06:21:02;101041.72;;;-6.42;62.71
47166;BME280;32930;51.112;13.762;2022-12-18T06:23:28;101037.16;;;-6.28;63.44
47166;BME280;32930;51.112;13.762;2022-12-18T06:25:54;101037.72;;;-6.31;62.90
47166;BME280;32930;51.112;13.762;2022-12-18T06:28:20;101040.69;;;-6.35;62.85
47166;BME280;32930;51.112;13.762;2022-12-18T06:30:47;101036.84;;;-6.40;62.68
47166;BME280;32930;51.112;13.762;2022-12-18T06:33:14;101043.59;;;-6.57;63.17
47166;BME280;32930;51.112;13.762;2022-12-18T06:35:40;101051.97;;;-6.47;63.17
47166;BME280;32930;51.112;13.762;2022-12-18T06:38:06;101044.94;;;-6.34;62.67
47166;BME280;32930;51.112;13.762;2022-12-18T06:40:32;101045.81;;;-6.34;62.89
47166;BME280;32930;51.112;13.762;2022-12-18T06:42:57;101045.81;;;-6.51;63.08
47166;BME280;32930;51.112;13.762;2022-12-18T06:45:23;101047.84;;;-6.47;62.61
47166;BME280;32930;51.112;13.762;2022-12-18T06:47:50;101058.59;;;-6.39;62.97
47166;BME280;32930;51.112;13.762;2022-12-18T06:50:15;101053.13;;;-6.53;62.82
47166;BME280;32930;51.112;13.762;2022-12-18T06:52:41;101067.13;;;-6.11;65.50
47166;BME280;32930;51.112;13.762;2022-12-18T06:55:09;101064.75;;;-6.36;63.11
47166;BME280;32930;51.112;13.762;2022-12-18T06:57:35;101056.09;;;-6.31;62.98
47166;BME280;32930;51.112;13.762;2022-12-18T07:00:01;101066.22;;;-6.38;62.58
47166;BME280;32930;51.112;13.762;2022-12-18T07:02:26;101064.72;;;-6.53;63.08
47166;BME280;32930;51.112;13.762;2022-12-18T07:04:52;101071.22;;;-6.38;62.91
47166;BME280;32930;51.112;13.762;2022-12-18T07:07:17;101070.63;;;-6.44;62.47
47166;BME280;32930;51.112;13.762;2022-12-18T07:09:43;101080.16;;;-6.57;62.45
47166;BME280;32930;51.112;13.762;2022-12-18T07:12:08;101090.44;;;-6.45;62.73
47166;BME280;32930;51.112;13.762;2022-12-18T07:14:33;101085.75;;;-6.34;62.76
47166;BME280;32930;51.112;13.762;2022-12-18T07:16:59;101080.91;;;-6.32;62.85
47166;BME280;32930;51.112;13.762;2022-12-18T07:19:24;101079.47;;;-6.30;62.56
47166;BME280;32930;51.112;13.762;2022-12-18T07:21:51;101086.78;;;-6.32;62.47
47166;BME280;32930;51.112;13.762;2022-12-18T07:24:16;101075.59;;;-6.44;62.64
47166;BME280;32930;51.112;13.762;2022-12-18T07:26:42;101076.34;;;-6.45;63.00
47166;BME280;32930;51.112;13.762;2022-12-18T07:29:10;101076.50;;;-6.35;63.18
47166;BME280;32930;51.112;13.762;2022-12-18T07:31:36;101076.34;;;-6.27;63.06
47166;BME280;32930;51.112;13.762;2022-12-18T07:34:01;101081.38;;;-6.36;62.83
47166;BME280;32930;51.112;13.762;2022-12-18T07:36:27;101092.06;;;-6.46;63.36
47166;BME280;32930;51.112;13.762;2022-12-18T07:38:52;101097.50;;;-6.41;63.47
47166;BME280;32930;51.112;13.762;2022-12-18T07:41:18;101094.13;;;-6.42;63.74
47166;BME280;32930;51.112;13.762;2022-12-18T07:43:44;101101.91;;;-6.39;63.08
47166;BME280;32930;51.112;13.762;2022-12-18T07:46:12;101104.09;;;-6.42;63.22
47166;BME280;32930;51.112;13.762;2022-12-18T07:48:42;101103.50;;;-6.31;63.21
47166;BME280;32930;51.112;13.762;2022-12-18T07:51:08;101109.84;;;-6.43;63.46
47166;BME280;32930;51.112;13.762;2022-12-18T07:53:35;101114.09;;;-6.42;63.50
47166;BME280;32930;51.112;13.762;2022-12-18T07:56:09;101112.03;;;-6.37;63.97
47166;BME280;32930;51.112;13.762;2022-12-18T07:58:36;101105.59;;;-6.26;63.73
47166;BME280;32930;51.112;13.762;2022-12-18T08:01:11;101112.97;;;-6.02;63.66
47166;BME280;32930;51.112;13.762;2022-12-18T08:03:39;101106.47;;;-6.35;64.10
47166;BME280;32930;51.112;13.762;2022-12-18T08:06:07;101103.38;;;-6.15;64.90
47166;BME280;32930;51.112;13.762;2022-12-18T08:08:34;101092.63;;;-5.79;65.48
47166;BME280;32930;51.112;13.762;2022-12-18T08:11:00;101089.97;;;-5.80;65.71
47166;BME280;32930;51.112;13.762;2022-12-18T08:13:27;101091.16;;;-4.87;74.83
47166;BME280;32930;51.112;13.762;2022-12-18T08:16:02;101092.03;;;-4.86;74.76
47166;BME280;32930;51.112;13.762;2022-12-18T08:18:28;101085.44;;;-4.67;74.75
47166;BME280;32930;51.112;13.762;2022-12-18T08:20:54;101085.09;;;-4.34;76.09
47166;BME280;32930;51.112;13.762;2022-12-18T08:23:20;101093.25;;;-4.26;75.37
47166;BME280;32930;51.112;13.762;2022-12-18T08:25:46;101083.41;;;-3.77;76.30
47166;BME280;32930;51.112;13.762;2022-12-18T08:28:12;101080.38;;;-3.54;76.49
47166;BME280;32930;51.112;13.762;2022-12-18T08:30:37;101082.50;;;-3.58;76.97
47166;BME280;32930;51.112;13.762;2022-12-18T08:33:03;101093.25;;;-3.40;75.02
47166;BME280;32930;51.112;13.762;2022-12-18T08:35:29;101085.84;;;-3.39;75.35
47166;BME280;32930;51.112;13.762;2022-12-18T08:37:54;101086.38;;;-3.22;74.69
47166;BME280;32930;51.112;13.762;2022-12-18T08:40:20;101092.06;;;-3.15;75.04
47166;BME280;32930;51.112;13.762;2022-12-18T08:42:54;101088.00;;;-3.23;74.80
47166;BME280;32930;51.112;13.762;2022-12-18T08:45:39;101086.97;;;-2.96;76.10
47166;BME280;32930;51.112;13.762;2022-12-18T08:48:04;101081.19;;;-2.85;76.01
47166;BME280;32930;51.112;13.762;2022-12-18T08:50:30;101082.06;;;-2.94;76.56
47166;BME280;32930;51.112;13.762;2022-12-18T08:52:56;101087.34;;;-2.81;75.83
47166;BME280;32930;51.112;13.762;2022-12-18T08:55:21;101095.16;;;-2.58;75.50
47166;BME280;32930;51.112;13.762;2022-12-18T08:57:50;101093.63;;;-2.66;74.86
47166;BME280;32930;51.112;13.762;2022-12-18T09:00:15;101093.38;;;-2.59;74.22
47166;BME280;32930;51.112;13.762;2022-12-18T09:02:41;101100.81;;;-2.70;74.57
47166;BME280;32930;51.112;13.762;2022-12-18T09:05:07;101094.34;;;-2.97;74.38
47166;BME280;32930;51.112;13.762;2022-12-18T09:07:32;101086.81;;;-2.87;73.31
47166;BME280;32930;51.112;13.762;2022-12-18T09:09:58;101084.34;;;-2.77;73.91
47166;BME280;32930;51.112;13.762;2022-12-18T09:12:23;101087.25;;;-2.42;73.00
47166;BME280;32930;51.112;13.762;2022-12-18T09:14:49;101099.41;;;-2.67;72.95
47166;BME280;32930;51.112;13.762;2022-12-18T09:17:14;101101.66;;;-2.60;73.77
47166;BME280;32930;51.112;13.762;2022-12-18T09:19:40;101115.63;;;-2.73;73.99
47166;BME280;32930;51.112;13.762;2022-12-18T09:22:05;101113.00;;;-2.54;73.04
47166;BME280;32930;51.112;13.762;2022-12-18T09:24:34;101120.28;;;-2.27;72.34
47166;BME280;32930;51.112;13.762;2022-12-18T09:27:00;101129.06;;;-2.32;72.61
47166;BME280;32930;51.112;13.762;2022-12-18T09:29:25;101120.66;;;-2.22;72.66
47166;BME280;32930;51.112;13.762;2022-12-18T09:31:51;101131.59;;;-2.42;73.27
47166;BME280;32930;51.112;13.762;2022-12-18T09:34:17;101128.41;;;-2.09;72.58
47166;BME280;32930;51.112;13.762;2022-12-18T09:36:42;101124.91;;;-2.21;72.59
47166;BME280;32930;51.112;13.762;2022-12-18T09:39:08;101126.03;;;-2.18;73.53
47166;BME280;32930;51.112;13.762;2022-12-18T09:44:44;101126.00;;;-1.87;72.72
47166;BME280;32930;51.112;13.762;2022-12-18T09:49:46;101122.25;;;-2.13;74.46
47166;BME280;32930;51.112;13.762;2022-12-18T09:52:27;101119.56;;;-1.83;74.09
47166;BME280;32930;51.112;13.762;2022-12-18T09:55:10;101111.94;;;-1.95;74.46
47166;BME280;32930;51.112;13.762;2022-12-18T09:57:48;101110.13;;;-1.86;75.24
47166;BME280;32930;51.112;13.762;2022-12-18T10:00:21;101105.94;;;-1.65;75.27
47166;BME280;32930;51.112;13.762;2022-12-18T10:02:47;101105.59;;;-1.70;74.72
47166;BME280;32930;51.112;13.762;2022-12-18T10:05:16;101100.63;;;-1.58;75.15
47166;BME280;32930;51.112;13.762;2022-12-18T10:10:23;101088.53;;;-1.52;74.84
47166;BME280;32930;51.112;13.762;2022-12-18T10:13:04;101073.94;;;-1.24;74.48
47166;BME280;32930;51.112;13.762;2022-12-18T10:15:58;101069.72;;;-1.35;75.28
47166;BME280;32930;51.112;13.762;2022-12-18T10:18:42;101071.28;;;-1.47;74.87
47166;BME280;32930;51.112;13.762;2022-12-18T10:26:47;101062.59;;;-1.19;74.74
47166;BME280;32930;51.112;13.762;2022-12-18T10:29:16;101062.72;;;-1.49;73.48
47166;BME280;32930;51.112;13.762;2022-12-18T10:31:42;101049.06;;;-1.31;73.48
47166;BME280;32930;51.112;13.762;2022-12-18T10:34:12;101053.75;;;-1.13;73.33
47166;BME280;32930;51.112;13.762;2022-12-18T10:36:47;101042.78;;;-1.14;73.00
47166;BME280;32930;51.112;13.762;2022-12-18T10:39:24;101040.56;;;-1.43;73.35
47166;BME280;32930;51.112;13.762;2022-12-18T10:42:10;101036.00;;;-1.15;73.20
47166;BME280;32930;51.112;13.762;2022-12-18T10:44:38;101029.31;;;-1.14;72.86
47166;BME280;32930;51.112;13.762;2022-12-18T10:47:09;101028.09;;;-1.20;72.64
47166;BME280;32930;51.112;13.762;2022-12-18T10:49:46;101026.44;;;-0.97;72.81
47166;BME280;32930;51.112;13.762;2022-12-18T10:54:52;101036.31;;;-1.10;72.34
47166;BME280;32930;51.112;13.762;2022-12-18T10:57:35;101029.69;;;-0.64;71.77
47166;BME280;32930;51.112;13.762;2022-12-18T11:00:23;101030.56;;;-0.76;71.16
47166;BME280;32930;51.112;13.762;2022-12-18T11:02:50;101045.03;;;-1.07;70.96
47166;BME280;32930;51.112;13.762;2022-12-18T11:05:45;101030.34;;;-0.79;71.72
47166;BME280;32930;51.112;13.762;2022-12-18T11:08:21;101030.88;;;-0.71;71.21
47166;BME280;32930;51.112;13.762;2022-12-18T11:10:49;101027.34;;;-0.85;70.68
47166;BME280;32930;51.112;13.762;2022-12-18T11:13:22;101019.63;;;-0.64;69.95
47166;BME280;32930;51.112;13.762;2022-12-18T11:15:49;101019.41;;;-0.56;69.85
47166;BME280;32930;51.112;13.762;2022-12-18T11:20:59;100991.91;;;-0.29;69.31
47166;BME280;32930;51.112;13.762;2022-12-18T11:23:27;101000.25;;;-0.42;71.86
47166;BME280;32930;51.112;13.762;2022-12-18T11:25:59;100988.31;;;-0.33;69.83
47166;BME280;32930;51.112;13.762;2022-12-18T11:28:38;100992.91;;;-0.39;69.14
47166;BME280;32930;51.112;13.762;2022-12-18T11:31:22;100991.94;;;-0.53;68.87
47166;BME280;32930;51.112;13.762;2022-12-18T11:36:43;100993.47;;;-0.31;68.60
47166;BME280;32930;51.112;13.762;2022-12-18T11:39:21;100987.19;;;-0.48;68.53
47166;BME280;32930;51.112;13.762;2022-12-18T11:41:57;100992.91;;;-0.27;67.91
47166;BME280;32930;51.112;13.762;2022-12-18T11:44:48;100992.47;;;-0.33;67.42
47166;BME280;32930;51.112;13.762;2022-12-18T11:50:03;100989.19;;;-0.32;68.35
47166;BME280;32930;51.112;13.762;2022-12-18T11:52:40;100990.84;;;-0.21;67.78
47166;BME280;32930;51.112;13.762;2022-12-18T11:58:39;101006.06;;;-0.19;68.14
47166;BME280;32930;51.112;13.762;2022-12-18T12:06:49;101002.34;;;-0.25;67.58
47166;BME280;32930;51.112;13.762;2022-12-18T12:12:36;101009.69;;;-0.39;66.37
47166;BME280;32930;51.112;13.762;2022-12-18T12:30:03;101031.13;;;-0.68;66.27
47166;BME280;32930;51.112;13.762;2022-12-18T12:41:14;101042.44;;;-0.51;66.40
47166;BME280;32930;51.112;13.762;2022-12-18T12:44:05;101037.84;;;-0.57;65.67
47166;BME280;32930;51.112;13.762;2022-12-18T12:46:37;101053.19;;;-0.42;65.40
47166;BME280;32930;51.112;13.762;2022-12-18T12:49:19;101056.72;;;-0.28;65.03
47166;BME280;32930;51.112;13.762;2022-12-18T12:52:12;101038.53;;;-0.70;65.15
47166;BME280;32930;51.112;13.762;2022-12-18T12:54:40;101037.66;;;-0.70;65.36
47166;BME280;32930;51.112;13.762;2022-12-18T12:57:56;101035.94;;;-0.71;65.45
47166;BME280;32930;51.112;13.762;2022-12-18T13:00:30;101032.75;;;-1.02;66.03
47166;BME280;32930;51.112;13.762;2022-12-18T13:05:56;101017.41;;;-0.72;65.68
47166;BME280;32930;51.112;13.762;2022-12-18T13:08:26;101015.63;;;-0.84;65.67
47166;BME280;32930;51.112;13.762;2022-12-18T13:10:54;101022.91;;;-0.99;66.05
47166;BME280;32930;51.112;13.762;2022-12-18T13:13:54;101024.84;;;-0.85;65.40
47166;BME280;32930;51.112;13.762;2022-12-18T13:16:23;101023.47;;;-1.03;66.04
47166;BME280;32930;51.112;13.762;2022-12-18T13:18:55;101018.72;;;-0.77;66.11
47166;BME280;32930;51.112;13.762;2022-12-18T13:24:31;101028.75;;;-0.88;65.95
47166;BME280;32930;51.112;13.762;2022-12-18T13:36:54;101018.94;;;-1.07;66.57
47166;BME280;32930;51.112;13.762;2022-12-18T13:39:41;101011.56;;;-0.94;66.62
47166;BME280;32930;51.112;13.762;2022-12-18T13:44:55;101010.94;;;-1.13;67.13
47166;BME280;32930;51.112;13.762;2022-12-18T13:47:35;101016.03;;;-1.24;67.31
47166;BME280;32930;51.112;13.762;2022-12-18T13:50:32;101022.06;;;-1.22;67.20
47166;BME280;32930;51.112;13.762;2022-12-18T13:53:02;101014.34;;;-1.13;66.97
47166;BME280;32930;51.112;13.762;2022-12-18T13:55:36;101019.25;;;-1.14;67.14
47166;BME280;32930;51.112;13.762;2022-12-18T14:04:56;101018.38;;;-1.15;67.19
47166;BME280;32930;51.112;13.762;2022-12-18T14:07:29;101022.41;;;-1.17;67.50
47166;BME280;32930;51.112;13.762;2022-12-18T14:10:16;101028.38;;;-1.27;67.78
47166;BME280;32930;51.112;13.762;2022-12-18T14:13:15;101027.16;;;-1.54;68.24
47166;BME280;32930;51.112;13.762;2022-12-18T14:16:31;101021.78;;;-1.36;68.72
47166;BME280;32930;51.112;13.762;2022-12-18T14:20:13;101019.63;;;-1.32;68.44
47166;BME280;32930;51.112;13.762;2022-12-18T14:26:28;101012.63;;;-1.24;68.30
47166;BME280;32930;51.112;13.762;2022-12-18T14:29:10;101005.25;;;-1.33;68.59
47166;BME280;32930;51.112;13.762;2022-12-18T14:31:42;101001.16;;;-1.43;68.29
47166;BME280;32930;51.112;13.762;2022-12-18T14:34:17;100994.91;;;-1.26;68.76
47166;BME280;32930;51.112;13.762;2022-12-18T14:36:52;100990.41;;;-1.52;68.32
47166;BME280;32930;51.112;13.762;2022-12-18T14:39:18;100986.25;;;-1.73;69.33
47166;BME280;32930;51.112;13.762;2022-12-18T14:41:44;100987.53;;;-1.56;69.10
47166;BME280;32930;51.112;13.762;2022-12-18T14:44:12;100982.50;;;-1.56;69.00
47166;BME280;32930;51.112;13.762;2022-12-18T14:46:45;100977.41;;;-1.68;69.66
47166;BME280;32930;51.112;13.762;2022-12-18T14:49:43;100992.91;;;-1.74;69.47
47166;BME280;32930;51.112;13.762;2022-12-18T14:52:31;100988.09;;;-1.71;69.19
47166;BME280;32930;51.112;13.762;2022-12-18T14:54:57;100993.19;;;-1.81;69.62